Airfield :
LOGIN :

Register | Disclaimer

   EN    FR    IT 

 










Legend :    VFR   Marginal VFR   IFR   Intensive IFR   Very Intensive IFR
Visi :
Ceiling :
>= 8 km
>= 3000ft
5 to 8 km
1000 to 3000 ft
1500m to 5 km
500 to 1000 ft
800 to 1500m
200 to 500 ft
< 800m
< 200 ft
Symbols :   Thunderstorms  Fog  Heavy snow  Heavy precipitations  Wind > 20 kt
SIGMETs :     Misc.  Thunderstorms  Icing  Turbulence  Mountain Waves  Volcanic Ashes







- Airport Elevation : 146 ft
- IATA code : RKE


EKRK - Roskilde Tune

CURRENT METAR :
  • 212250Z AUTO 00000KT 0150 R11/1000U R29/1200N -SHRA BCFG NCD 08/08 Q1018

EXPIRED METARs :
  • 212220Z AUTO 17001KT 0100 R11/0450N R29/P1500D -SHRA FG NCD 09/08 Q1018
  • 212150Z AUTO 00000KT 1100 R11/P1500U R29/P1500N -SHRA FG NCD 09/08 Q1018
  • 212120Z AUTO 34001KT 5000 -SHRA NCD 10/09 Q1018
  • 212050Z AUTO 23001KT 0650 R11/P1500N R29/0450U -SHRA NCD 11/11 Q1019
  • 212020Z AUTO 23001KT 0200 R11/0650D R29/0900D BCFG NCD 10/10 Q1019

TAF TAF EKRK
Valid from the 21 at 21:00 until the 22 at 06:00 UTC


212022Z 2121/2206 VRB02KT 0200 FG VV001
TEMPO 2121/2206 3000 BCFG SCT002
No reported NOTAMs for that airfield.



MET'MAP, your aeronautical weather chart ! - Copyright ORBIFLY December 2007 - Disclaimer

ORBIFLY MET'MAP TEAM :

Programming & Development : Alexandra Zaïnal
Concept & Development : Baudouin d'Aumeries
Co-Development & Prog : Marc-Olivier Méhu
Technical & hardware support : Manuel Goepfert

Contact : metmap@orbifly.com




SOURCES & CREDITS :

   NOAA